No se requiere un especial cuidado respecto a la situación meteorológica.   -   No hay avisos

Informes METAR

 

LEZL - Sevilla, Spain
Distancia de la estación: ENE 8km
Actualización: 23/02/2017 12:30
Poco nuboso
Poco nuboso
 Viento de ONO
Viento: ONO 2 km/h
Temperatura: 15°C
Rocío: 13°C
Humedad: 88%
Barómetro: 1014 hPa
Nubes: Poco nuboso
Visibilidad: 10 km
Detalles de las nubes: Poco nuboso 366 m
2017/02/23 11:30 LEZL 231130Z 29001KT 9999 FEW012 15/13 Q1014 NOSIG
LEMO - Morón, Spain
Distancia de la estación: SE 43km
Actualización: 23/02/2017 12:00
Parcialmente nuboso
Parcialmente nuboso
 Viento de variable
Viento: variable 4 km/h
Temperatura: 14°C
Rocío: 11°C
Humedad: 82%
Barómetro: 1014 hPa
Nubes: Parcialmente nuboso
Visibilidad: 7 km
Detalles de las nubes: Poco nuboso 1006 m
Parcialmente nuboso 1920 m
2017/02/23 11:00 LEMO 231100Z VRB02KT 7000 FEW033 SCT063 14/11 Q1014 NOSIG
LEJR - Jeréz, Spain
Distancia de la estación: S 71km
Actualización: 23/02/2017 13:00
Neblina, Lluvia débil, Muy nuboso
Neblina, Lluvia débil, Muy nuboso
 Viento de SSE
Viento: SSE 7 km/h
Temperatura: 14°C
Rocío: 13°C
Humedad: 94%
Barómetro: 1015 hPa
Resumen: Neblina, Lluvia débil
Nubes: Muy nuboso
Visibilidad: 4 km
Detalles de las nubes: Poco nuboso 274 m
Parcialmente nuboso 975 m
Muy nuboso 1372 m
2017/02/23 12:00 LEJR 231200Z 15004KT 100V190 4000 BR -RA FEW009 SCT032 BKN045 14/13 Q1015 RERA
 
LERT - Rota, Spain
Distancia de la estación: SSO 89km
Actualización: 23/02/2017 12:00
Lluvia débil, Poco nuboso
Lluvia débil, Poco nuboso
 Viento de S
Viento: S 6 km/h
Temperatura: 15°C
Rocío: 13°C
Humedad: 88%
Barómetro: 1014 hPa
Resumen: Lluvia débil
Nubes: Poco nuboso
Visibilidad: 7 km
Detalles de las nubes: Poco nuboso 518 m
2017/02/23 11:00 LERT 231100Z 17003KT 7000 -RA FEW017 15/13 Q1014 NOSIG
LEMG - Málaga, Spain
Distancia de la estación: ESE 157km
Actualización: 23/02/2017 12:30
Neblina, Parcialmente nuboso
Neblina, Parcialmente nuboso
 Viento de ONO
Viento: ONO 6 km/h
Temperatura: 16°C
Rocío: 13°C
Humedad: 83%
Barómetro: 1013 hPa
Resumen: Neblina
Nubes: Parcialmente nuboso
Visibilidad: 5 km
Detalles de las nubes: Poco nuboso 610 m
Parcialmente nuboso 1372 m
2017/02/23 11:30 LEMG 231130Z 30003KT 5000 BR FEW020CB SCT045 16/13 Q1013 NOSIG
LEBA - Córdoba, Spain
Distancia de la estación: ENE 115km
Actualización: 23/02/2017 12:30
Parcialmente nuboso
Parcialmente nuboso
 Viento de variable
Viento: variable 4 km/h
Temperatura: 14°C
Rocío: 12°C
Humedad: 88%
Barómetro: 1014 hPa
Nubes: Parcialmente nuboso
Visibilidad: 8 km
Detalles de las nubes: Poco nuboso 366 m
Parcialmente nuboso 1219 m
2017/02/23 11:30 LEBA 231130Z VRB02KT 8000 FEW012 SCT040 14/12 Q1014
 
LEGR - Granada, Spain
Distancia de la estación: E 198km
Actualización: 23/02/2017 12:30
Calima, Parcialmente nuboso
Calima, Parcialmente nuboso
 Viento de OSO
Viento: OSO 9 km/h
Temperatura: 15°C
Rocío: 9°C
Humedad: 68%
Barómetro: 1013 hPa
Resumen: Calima
Nubes: Parcialmente nuboso
Visibilidad: 5 km
Detalles de las nubes: Poco nuboso 1372 m
Parcialmente nuboso 2743 m
2017/02/23 11:30 LEGR 231130Z 24005KT 210V280 5000 HZ FEW045TCU SCT090 15/09 Q1013
LEAM - Almería, Spain
Distancia de la estación: E 326km
Actualización: 23/02/2017 12:30
Parcialmente nuboso
Parcialmente nuboso
 Viento de E
Viento: E 39 km/h
Temperatura: 21°C
Rocío: 10°C
Humedad: 50%
Barómetro: 1011 hPa
Nubes: Parcialmente nuboso
Visibilidad: 9 km
2017/02/23 11:30 LEAM 231130Z 08021KT 050V110 9000 NSC 21/10 Q1011
LEMD - Madrid/Barajas, Spain
Distancia de la estación: NNE 402km
Actualización: 23/02/2017 12:30
Parcialmente nuboso
Parcialmente nuboso
 Viento de calm
Viento: Calma
Temperatura: 12°C
Rocío: 6°C
Humedad: 67%
Barómetro: 1017 hPa
Nubes: Parcialmente nuboso
Visibilidad: 7 km
Detalles de las nubes: Parcialmente nuboso 2134 m
2017/02/23 11:30 LEMD 231130Z 00000KT 7000 SCT070 12/06 Q1017 NOSIG
 
LEVD - Valladolid, Spain
Distancia de la estación: N 492km
Actualización: 23/02/2017 12:30
Despejado
Despejado
 Viento de variable
Viento: variable 4 km/h
Temperatura: 14°C
Rocío: 3°C
Humedad: 48%
Barómetro: 1016 hPa
Resumen: Despejado
Visibilidad: mayor de 10 km
2017/02/23 11:30 LEVD 231130Z VRB02KT CAVOK 14/03 Q1016
LEBL - Barcelona, Spain
Distancia de la estación: NE 816km
Actualización: 23/02/2017 12:30
Despejado
Despejado
 Viento de NO
Viento: NO 11 km/h, Racha: 30 km/h
Temperatura: 14°C
Rocío: 6°C
Humedad: 59%
Barómetro: 1017 hPa
Resumen: Despejado
Visibilidad: mayor de 10 km
2017/02/23 11:30 LEBL 231130Z 31006G16KT 250V340 CAVOK 14/06 Q1017 NOSIG
LEVC - Valencia, Spain
Distancia de la estación: ENE 535km
Actualización: 23/02/2017 12:30
Despejado
Despejado
 Viento de variable
Viento: variable 4 km/h
Temperatura: 16°C
Rocío: 8°C
Humedad: 59%
Barómetro: 1017 hPa
Resumen: Despejado
Visibilidad: mayor de 10 km
2017/02/23 11:30 LEVC 231130Z VRB02KT CAVOK 16/08 Q1017 NOSIG